Flight Track Log - Related Links

Times and Time Zones

All times are in EDT time to prevent confusion due to time zone crossing. See the SWA2130 flight status page for this flight to view local times or setup timezone preferences in your user account.

Time Position Orientation Groundspeed Altitude Reporting Facility
EDT Latitude Longitude Course Direction KTS MPH feet Rate Location/Type
Fri 06:53:53 PM 37.6500 -122.3667 130° Southeast 170 196 1,600  Level Northern Cal TRACON
Fri 06:54:55 PM 37.7086 -122.3614 North 245 282 3,900 2,565 Climbing Oakland Center
Fri 06:55:57 PM 37.7331 -122.4336 293° West 270 311 6,900 2,976 Climbing Oakland Center
Fri 06:56:58 PM 37.6892 -122.5186 237° Southwest 292 336 10,000 2,585 Climbing Oakland Center
Fri 06:58:00 PM 37.6092 -122.5197 181° South 292 336 12,200 2,371 Climbing Oakland Center
Fri 06:59:00 PM 37.0348 -121.8022 130° Southeast  Level FlightAware Approximate
Fri 06:59:02 PM 37.5219 -122.5133 177° South 311 358 14,900  Level Oakland Center
Fri 07:00:03 PM 37.4225 -122.4311 147° Southeast 373 429 18,300 3,122 Climbing Oakland Center
Fri 07:01:05 PM 37.3528 -122.3303 131° Southeast 385 443 21,300 2,829 Climbing Oakland Center
Fri 07:02:06 PM 37.2842 -122.2292 130° Southeast 385 443 24,100 2,488 Climbing Oakland Center
Fri 07:03:08 PM 37.2100 -122.1253 132° Southeast 398 458 26,400 2,177 Climbing Oakland Center
Fri 07:04:10 PM 37.1328 -122.0156 131° Southeast 416 479 28,600 2,049 Climbing Oakland Center
Fri 07:05:11 PM 37.0542 -121.9042 131° Southeast 427 491 30,600 2,000 Climbing Oakland Center
Fri 07:06:13 PM 36.9733 -121.7914 132° Southeast 435 501 32,700 2,098 Climbing Oakland Center
Fri 07:07:14 PM 36.8756 -121.6592 133° Southeast 432 497 34,900 1,805 Climbing Oakland Center
Fri 07:08:16 PM 36.8047 -121.5608 132° Southeast 436 502 36,400 1,452 Climbing Oakland Center
Fri 07:09:18 PM 36.7069 -121.4247 132° Southeast 439 505 37,900 1,268 Climbing Oakland Center
Fri 07:10:19 PM 36.6261 -121.3103 131° Southeast 440 506 39,000 537 Climbing Oakland Center
Fri 07:11:21 PM 36.5411 -121.1928 132° Southeast 454 522 39,000  Level Oakland Center
Fri 07:12:22 PM 36.4567 -121.0739 131° Southeast 458 527 39,000  Level Oakland Center
Fri 07:13:24 PM 36.3708 -120.9589 133° Southeast 456 525 39,000  Level Oakland Center
Fri 07:14:26 PM 36.2844 -120.8400 132° Southeast 460 529 39,000  Level Oakland Center
Fri 07:15:27 PM 36.1992 -120.7222 132° Southeast 460 529 39,000  Level Oakland Center
Fri 07:16:29 PM 36.1133 -120.6064 133° Southeast 457 526 39,000  Level Oakland Center
Fri 07:17:30 PM 36.0272 -120.4875 132° Southeast 461 531 39,000  Level Oakland Center
Fri 07:18:32 PM 35.9233 -120.3494 133° Southeast 455 524 39,000  Level Oakland Center
Fri 07:19:33 PM 35.8369 -120.2328 132° Southeast 458 527 39,000  Level Oakland Center
Fri 07:20:35 PM 35.7503 -120.1183 133° Southeast 455 524 39,000  Level Oakland Center
Fri 07:21:36 PM 35.6636 -120.0006 132° Southeast 457 526 39,000 -341 Level Oakland Center
Fri 07:22:38 PM 35.5614 -119.9050 143° Southeast 452 520 38,300 -780 Descending Oakland Center
Fri 07:23:39 PM 35.4542 -119.8128 145° Southeast 461 531 37,400 -942 Descending Oakland Center
Fri 07:24:39 PM 35.3503 -119.7206 144° Southeast 462 532 36,400 -1,328 Descending Los Angeles Center
Fri 07:25:41 PM 35.2456 -119.6331 146° Southeast 455 524 34,700 -1,728 Descending Los Angeles Center
Fri 07:26:44 PM 35.1400 -119.5425 145° Southeast 460 529 32,800 -1,824 Descending Los Angeles Center
Fri 07:27:46 PM 35.0317 -119.4500 145° Southeast 471 542 30,900 -2,022 Descending Los Angeles Center
Fri 07:29:48 PM 34.8028 -119.2556 145° Southeast 452 520 26,600 -2,120 Descending Oakland Center
Fri 07:30:50 PM 34.7050 -119.1747 146° Southeast 433 498 24,400 -2,048 Descending Oakland Center
Fri 07:31:54 PM 34.6167 -119.0986 145° Southeast 416 479 22,300 -2,190 Descending Los Angeles Center
Fri 07:32:56 PM 34.5092 -119.0100 146° Southeast 382 440 19,800 -2,177 Descending Los Angeles Center
Fri 07:33:58 PM 34.4228 -118.9383 146° Southeast 373 429 17,800 -1,984 Descending Los Angeles Center
Fri 07:35:00 PM 34.3367 -118.8722 148° Southeast 364 419 15,700 -2,032 Descending Los Angeles Center
Fri 07:36:02 PM 34.2406 -118.8394 164° South 357 411 13,600 -1,935 Descending Los Angeles Center
Fri 07:37:04 PM 34.1478 -118.8053 163° South 349 402 11,700 -1,728 Descending Los Angeles Center
Fri 07:38:07 PM 34.0478 -118.7578 159° South 327 376 10,000 -816 Descending Los Angeles Center
Fri 07:39:09 PM 34.0297 -118.6667 103° East 281 323 10,000 -823 Level Los Angeles Center
Fri 07:40:11 PM 34.0200 -118.5672 97° East 279 321 8,300 -1,452 Descending Los Angeles Center
Fri 07:41:13 PM 34.0117 -118.4758 96° East 275 316 7,000 -823 Descending Los Angeles Center
Fri 07:42:15 PM 34.0181 -118.3956 84° East 264 304 6,600 -677 Descending Los Angeles Center
Fri 07:43:17 PM 34.0267 -118.3125 83° East 253 291 5,600 -871 Descending Los Angeles Center
Fri 07:44:19 PM 34.0278 -118.2414 89° East 225 259 4,800 -1,065 Descending Los Angeles Center
Fri 07:45:21 PM 33.9850 -118.2194 157° South 182 209 3,400 -1,210 Descending Los Angeles Center
Fri 07:46:23 PM 33.9658 -118.2678 244° Southwest 170 196 2,300 -968 Descending Los Angeles Center
Fri 07:47:25 PM 33.9606 -118.3242 264° West 171 197 1,400 -768 Descending Los Angeles Center
Fri 07:48:28 PM 33.9567 -118.3692 264° West 153 176 700 -576 Descending Los Angeles Center
Fri 07:49:30 PM 33.9508 -118.4122 261° West 136 157 200 -484 Descending Los Angeles Center
Fri 07:51:00 PM 33.9425 -118.4081 228° Southwest  Level Estimated

Login

Don't have an account? Register now (free) for customized features, flight alerts, and more!